sensor_id;sensor_type;location;lat;lon;timestamp;temperature;humidity
3684;DHT22;1858;48.716;9.648;2022-12-18T00:00:07;-5.50;99.90
3684;DHT22;1858;48.716;9.648;2022-12-18T00:02:36;-5.60;99.90
3684;DHT22;1858;48.716;9.648;2022-12-18T00:05:05;-5.60;99.90
3684;DHT22;1858;48.716;9.648;2022-12-18T00:07:33;-5.50;99.90
3684;DHT22;1858;48.716;9.648;2022-12-18T00:10:02;-5.50;99.90
3684;DHT22;1858;48.716;9.648;2022-12-18T00:12:30;-5.50;99.90
3684;DHT22;1858;48.716;9.648;2022-12-18T00:14:58;-5.60;99.90
3684;DHT22;1858;48.716;9.648;2022-12-18T00:17:27;-5.50;99.90
3684;DHT22;1858;48.716;9.648;2022-12-18T00:19:55;-5.50;99.90
3684;DHT22;1858;48.716;9.648;2022-12-18T00:22:24;-5.50;99.90
3684;DHT22;1858;48.716;9.648;2022-12-18T00:24:52;-5.50;99.90
3684;DHT22;1858;48.716;9.648;2022-12-18T00:27:20;-5.50;99.90
3684;DHT22;1858;48.716;9.648;2022-12-18T00:29:49;-5.50;99.90
3684;DHT22;1858;48.716;9.648;2022-12-18T00:32:17;-5.40;99.90
3684;DHT22;1858;48.716;9.648;2022-12-18T00:34:46;-5.40;99.90
3684;DHT22;1858;48.716;9.648;2022-12-18T00:37:14;-5.50;99.90
3684;DHT22;1858;48.716;9.648;2022-12-18T00:39:42;-5.60;99.90
3684;DHT22;1858;48.716;9.648;2022-12-18T00:42:11;-5.60;99.90
3684;DHT22;1858;48.716;9.648;2022-12-18T00:44:58;-5.60;99.90
3684;DHT22;1858;48.716;9.648;2022-12-18T00:47:26;-5.70;99.90
3684;DHT22;1858;48.716;9.648;2022-12-18T00:49:54;-5.60;99.90
3684;DHT22;1858;48.716;9.648;2022-12-18T00:52:23;-5.50;99.90
3684;DHT22;1858;48.716;9.648;2022-12-18T00:54:51;-5.60;99.90
3684;DHT22;1858;48.716;9.648;2022-12-18T00:57:19;-5.60;99.90
3684;DHT22;1858;48.716;9.648;2022-12-18T00:59:48;-5.60;99.90
3684;DHT22;1858;48.716;9.648;2022-12-18T01:02:16;-5.60;99.90
3684;DHT22;1858;48.716;9.648;2022-12-18T01:04:45;-5.60;99.90
3684;DHT22;1858;48.716;9.648;2022-12-18T01:07:13;-5.70;99.90
3684;DHT22;1858;48.716;9.648;2022-12-18T01:09:41;-5.70;99.90
3684;DHT22;1858;48.716;9.648;2022-12-18T01:12:10;-5.70;99.90
3684;DHT22;1858;48.716;9.648;2022-12-18T01:14:38;-5.80;99.90
3684;DHT22;1858;48.716;9.648;2022-12-18T01:17:07;-5.80;99.90
3684;DHT22;1858;48.716;9.648;2022-12-18T01:19:35;-5.80;99.90
3684;DHT22;1858;48.716;9.648;2022-12-18T01:22:03;-5.90;99.90
3684;DHT22;1858;48.716;9.648;2022-12-18T01:24:32;-5.90;99.90
3684;DHT22;1858;48.716;9.648;2022-12-18T01:27:00;-6.00;99.90
3684;DHT22;1858;48.716;9.648;2022-12-18T01:29:28;-6.20;99.90
3684;DHT22;1858;48.716;9.648;2022-12-18T01:31:57;-6.20;1.00
3684;DHT22;1858;48.716;9.648;2022-12-18T01:34:25;-6.20;1.00
3684;DHT22;1858;48.716;9.648;2022-12-18T01:36:54;-6.10;1.00
3684;DHT22;1858;48.716;9.648;2022-12-18T01:39:22;-6.20;1.00
3684;DHT22;1858;48.716;9.648;2022-12-18T01:41:50;-6.10;1.00
3684;DHT22;1858;48.716;9.648;2022-12-18T01:45:03;-6.00;1.00
3684;DHT22;1858;48.716;9.648;2022-12-18T01:50:39;-6.30;1.00
3684;DHT22;1858;48.716;9.648;2022-12-18T01:53:19;-6.40;1.00
3684;DHT22;1858;48.716;9.648;2022-12-18T01:55:56;-6.40;1.00
3684;DHT22;1858;48.716;9.648;2022-12-18T01:58:32;-6.40;1.00
3684;DHT22;1858;48.716;9.648;2022-12-18T02:01:09;-6.40;1.00
3684;DHT22;1858;48.716;9.648;2022-12-18T02:03:40;-6.40;1.00
3684;DHT22;1858;48.716;9.648;2022-12-18T02:06:21;-6.40;1.00
3684;DHT22;1858;48.716;9.648;2022-12-18T02:17:13;-6.40;1.00
3684;DHT22;1858;48.716;9.648;2022-12-18T02:22:47;-6.60;1.00
3684;DHT22;1858;48.716;9.648;2022-12-18T02:27:47;-6.50;1.00
3684;DHT22;1858;48.716;9.648;2022-12-18T02:30:17;-6.60;1.00
3684;DHT22;1858;48.716;9.648;2022-12-18T02:32:51;-6.60;1.00
3684;DHT22;1858;48.716;9.648;2022-12-18T02:35:29;-6.60;1.00
3684;DHT22;1858;48.716;9.648;2022-12-18T02:37:55;-6.50;1.00
3684;DHT22;1858;48.716;9.648;2022-12-18T02:40:26;-6.40;1.00
3684;DHT22;1858;48.716;9.648;2022-12-18T02:43:07;-6.40;1.00
3684;DHT22;1858;48.716;9.648;2022-12-18T02:45:48;-6.50;1.00
3684;DHT22;1858;48.716;9.648;2022-12-18T02:48:19;-6.50;1.00
3684;DHT22;1858;48.716;9.648;2022-12-18T02:51:14;-6.40;1.00
3684;DHT22;1858;48.716;9.648;2022-12-18T02:53:49;-6.40;1.00
3684;DHT22;1858;48.716;9.648;2022-12-18T02:56:25;-6.40;1.00
3684;DHT22;1858;48.716;9.648;2022-12-18T03:02:16;-6.40;1.00
3684;DHT22;1858;48.716;9.648;2022-12-18T03:07:20;-6.30;1.00
3684;DHT22;1858;48.716;9.648;2022-12-18T03:09:50;-6.40;1.00
3684;DHT22;1858;48.716;9.648;2022-12-18T03:12:22;-6.30;1.00
3684;DHT22;1858;48.716;9.648;2022-12-18T03:17:56;-6.30;1.00
3684;DHT22;1858;48.716;9.648;2022-12-18T03:20:23;-6.40;1.00
3684;DHT22;1858;48.716;9.648;2022-12-18T03:22:56;-6.40;1.00
3684;DHT22;1858;48.716;9.648;2022-12-18T03:25:26;-6.40;26.60
3684;DHT22;1858;48.716;9.648;2022-12-18T03:27:58;-6.30;98.70
3684;DHT22;1858;48.716;9.648;2022-12-18T03:30:29;-6.40;99.90
3684;DHT22;1858;48.716;9.648;2022-12-18T03:33:07;-6.30;99.90
3684;DHT22;1858;48.716;9.648;2022-12-18T03:35:38;-6.30;99.90
3684;DHT22;1858;48.716;9.648;2022-12-18T03:38:06;-6.20;99.90
3684;DHT22;1858;48.716;9.648;2022-12-18T03:52:14;-6.30;99.90
3684;DHT22;1858;48.716;9.648;2022-12-18T03:54:43;-6.30;99.90
3684;DHT22;1858;48.716;9.648;2022-12-18T03:57:21;-6.20;99.90
3684;DHT22;1858;48.716;9.648;2022-12-18T03:59:54;-6.10;99.90
3684;DHT22;1858;48.716;9.648;2022-12-18T04:02:24;-6.20;99.90
3684;DHT22;1858;48.716;9.648;2022-12-18T04:04:53;-6.10;99.90
3684;DHT22;1858;48.716;9.648;2022-12-18T04:07:23;-6.10;99.90
3684;DHT22;1858;48.716;9.648;2022-12-18T04:09:55;-6.10;99.90
3684;DHT22;1858;48.716;9.648;2022-12-18T04:12:43;-6.00;99.90
3684;DHT22;1858;48.716;9.648;2022-12-18T04:15:12;-6.10;99.90
3684;DHT22;1858;48.716;9.648;2022-12-18T04:17:49;-6.00;99.90
3684;DHT22;1858;48.716;9.648;2022-12-18T04:20:18;-6.00;99.90
3684;DHT22;1858;48.716;9.648;2022-12-18T04:22:47;-6.10;99.90
3684;DHT22;1858;48.716;9.648;2022-12-18T04:25:15;-6.10;99.90
3684;DHT22;1858;48.716;9.648;2022-12-18T04:27:44;-6.00;99.90
3684;DHT22;1858;48.716;9.648;2022-12-18T04:30:12;-5.90;99.90
3684;DHT22;1858;48.716;9.648;2022-12-18T04:32:40;-6.00;99.90
3684;DHT22;1858;48.716;9.648;2022-12-18T04:35:09;-6.00;99.90
3684;DHT22;1858;48.716;9.648;2022-12-18T04:37:38;-5.90;99.90
3684;DHT22;1858;48.716;9.648;2022-12-18T04:40:06;-5.90;1.00
3684;DHT22;1858;48.716;9.648;2022-12-18T04:42:35;-5.90;1.00
3684;DHT22;1858;48.716;9.648;2022-12-18T04:45:04;-5.90;1.00
3684;DHT22;1858;48.716;9.648;2022-12-18T04:47:32;-5.90;99.90
3684;DHT22;1858;48.716;9.648;2022-12-18T04:50:01;-5.80;1.00
3684;DHT22;1858;48.716;9.648;2022-12-18T04:52:32;-5.80;1.00
3684;DHT22;1858;48.716;9.648;2022-12-18T04:55:00;-5.70;1.00
3684;DHT22;1858;48.716;9.648;2022-12-18T04:57:29;-5.70;99.90
3684;DHT22;1858;48.716;9.648;2022-12-18T04:59:57;-5.80;99.90
3684;DHT22;1858;48.716;9.648;2022-12-18T05:02:25;-5.90;99.90
3684;DHT22;1858;48.716;9.648;2022-12-18T05:04:54;-5.90;99.90
3684;DHT22;1858;48.716;9.648;2022-12-18T05:07:22;-5.70;1.00
3684;DHT22;1858;48.716;9.648;2022-12-18T05:09:51;-5.70;99.90
3684;DHT22;1858;48.716;9.648;2022-12-18T05:12:19;-5.70;99.90
3684;DHT22;1858;48.716;9.648;2022-12-18T05:14:47;-5.70;99.90
3684;DHT22;1858;48.716;9.648;2022-12-18T05:17:16;-5.80;99.90
3684;DHT22;1858;48.716;9.648;2022-12-18T05:19:44;-5.70;99.90
3684;DHT22;1858;48.716;9.648;2022-12-18T05:22:39;-5.80;99.90
3684;DHT22;1858;48.716;9.648;2022-12-18T05:25:08;-5.80;99.90
3684;DHT22;1858;48.716;9.648;2022-12-18T05:27:37;-5.70;99.90
3684;DHT22;1858;48.716;9.648;2022-12-18T05:30:06;-5.70;99.90
3684;DHT22;1858;48.716;9.648;2022-12-18T05:32:35;-5.60;99.90
3684;DHT22;1858;48.716;9.648;2022-12-18T05:35:04;-5.70;99.90
3684;DHT22;1858;48.716;9.648;2022-12-18T05:37:33;-5.70;99.90
3684;DHT22;1858;48.716;9.648;2022-12-18T05:40:04;-5.60;99.90
3684;DHT22;1858;48.716;9.648;2022-12-18T05:42:33;-5.60;99.90
3684;DHT22;1858;48.716;9.648;2022-12-18T05:45:01;-5.60;99.90
3684;DHT22;1858;48.716;9.648;2022-12-18T05:47:29;-5.70;99.90
3684;DHT22;1858;48.716;9.648;2022-12-18T05:49:58;-5.70;99.90
3684;DHT22;1858;48.716;9.648;2022-12-18T05:52:26;-5.70;99.90
3684;DHT22;1858;48.716;9.648;2022-12-18T05:54:54;-5.70;99.90
3684;DHT22;1858;48.716;9.648;2022-12-18T05:57:23;-5.70;99.90
3684;DHT22;1858;48.716;9.648;2022-12-18T05:59:51;-5.60;1.00
3684;DHT22;1858;48.716;9.648;2022-12-18T06:02:20;-5.70;99.90
3684;DHT22;1858;48.716;9.648;2022-12-18T06:04:48;-5.70;1.00
3684;DHT22;1858;48.716;9.648;2022-12-18T06:07:16;-5.70;1.00
3684;DHT22;1858;48.716;9.648;2022-12-18T06:09:45;-5.70;99.90
3684;DHT22;1858;48.716;9.648;2022-12-18T06:12:13;-5.70;99.90
3684;DHT22;1858;48.716;9.648;2022-12-18T06:14:41;-5.70;99.90
3684;DHT22;1858;48.716;9.648;2022-12-18T06:17:10;-5.60;99.90
3684;DHT22;1858;48.716;9.648;2022-12-18T06:19:38;-5.70;99.90
3684;DHT22;1858;48.716;9.648;2022-12-18T06:22:07;-5.70;99.90
3684;DHT22;1858;48.716;9.648;2022-12-18T06:24:35;-5.70;99.90
3684;DHT22;1858;48.716;9.648;2022-12-18T06:27:03;-5.70;99.90
3684;DHT22;1858;48.716;9.648;2022-12-18T06:29:32;-5.70;99.90
3684;DHT22;1858;48.716;9.648;2022-12-18T06:32:00;-5.70;99.90
3684;DHT22;1858;48.716;9.648;2022-12-18T06:34:32;-5.60;99.90
3684;DHT22;1858;48.716;9.648;2022-12-18T06:37:00;-5.60;99.90
3684;DHT22;1858;48.716;9.648;2022-12-18T06:39:42;-5.70;99.90
3684;DHT22;1858;48.716;9.648;2022-12-18T06:42:10;-5.70;99.90
3684;DHT22;1858;48.716;9.648;2022-12-18T06:44:39;-5.70;99.90
3684;DHT22;1858;48.716;9.648;2022-12-18T06:47:07;-5.70;99.90
3684;DHT22;1858;48.716;9.648;2022-12-18T06:49:35;-5.70;99.90
3684;DHT22;1858;48.716;9.648;2022-12-18T06:52:04;-5.70;99.90
3684;DHT22;1858;48.716;9.648;2022-12-18T06:54:32;-5.70;99.90
3684;DHT22;1858;48.716;9.648;2022-12-18T06:57:00;-5.70;99.90
3684;DHT22;1858;48.716;9.648;2022-12-18T06:59:29;-5.70;99.90
3684;DHT22;1858;48.716;9.648;2022-12-18T07:01:57;-5.80;99.90
3684;DHT22;1858;48.716;9.648;2022-12-18T07:04:30;-5.80;1.00
3684;DHT22;1858;48.716;9.648;2022-12-18T07:06:58;-5.70;1.00
3684;DHT22;1858;48.716;9.648;2022-12-18T07:09:27;-5.70;1.00
3684;DHT22;1858;48.716;9.648;2022-12-18T07:11:55;-5.70;1.00
3684;DHT22;1858;48.716;9.648;2022-12-18T07:14:24;-5.50;1.00
3684;DHT22;1858;48.716;9.648;2022-12-18T07:16:52;-5.50;1.00
3684;DHT22;1858;48.716;9.648;2022-12-18T07:19:23;-5.60;99.90
3684;DHT22;1858;48.716;9.648;2022-12-18T07:21:52;-5.60;99.90
3684;DHT22;1858;48.716;9.648;2022-12-18T07:24:20;-5.60;1.00
3684;DHT22;1858;48.716;9.648;2022-12-18T07:26:49;-5.70;99.90
3684;DHT22;1858;48.716;9.648;2022-12-18T07:29:17;-5.60;1.00
3684;DHT22;1858;48.716;9.648;2022-12-18T07:32:05;-5.60;99.90
3684;DHT22;1858;48.716;9.648;2022-12-18T07:34:34;-5.60;99.90
3684;DHT22;1858;48.716;9.648;2022-12-18T07:37:03;-5.60;99.90
3684;DHT22;1858;48.716;9.648;2022-12-18T07:39:32;-5.60;99.90
3684;DHT22;1858;48.716;9.648;2022-12-18T07:42:00;-5.50;99.90
3684;DHT22;1858;48.716;9.648;2022-12-18T07:44:47;-5.50;99.90
3684;DHT22;1858;48.716;9.648;2022-12-18T07:47:15;-5.40;99.90
3684;DHT22;1858;48.716;9.648;2022-12-18T07:49:43;-5.40;99.90
3684;DHT22;1858;48.716;9.648;2022-12-18T07:52:12;-5.30;99.90
3684;DHT22;1858;48.716;9.648;2022-12-18T07:54:40;-5.30;99.90
3684;DHT22;1858;48.716;9.648;2022-12-18T07:57:09;-5.30;99.90
3684;DHT22;1858;48.716;9.648;2022-12-18T07:59:37;-5.20;99.90
3684;DHT22;1858;48.716;9.648;2022-12-18T08:02:06;-5.20;99.90
3684;DHT22;1858;48.716;9.648;2022-12-18T08:04:37;-5.20;99.90
3684;DHT22;1858;48.716;9.648;2022-12-18T08:07:05;-5.10;99.90
3684;DHT22;1858;48.716;9.648;2022-12-18T08:09:33;-5.00;99.90
3684;DHT22;1858;48.716;9.648;2022-12-18T08:12:02;-5.00;99.90
3684;DHT22;1858;48.716;9.648;2022-12-18T08:14:30;-4.90;99.90
3684;DHT22;1858;48.716;9.648;2022-12-18T08:16:58;-5.00;99.90
3684;DHT22;1858;48.716;9.648;2022-12-18T08:19:27;-5.10;99.90
3684;DHT22;1858;48.716;9.648;2022-12-18T08:21:55;-5.00;99.90
3684;DHT22;1858;48.716;9.648;2022-12-18T08:24:24;-4.80;99.90
3684;DHT22;1858;48.716;9.648;2022-12-18T08:26:53;-4.70;99.90
3684;DHT22;1858;48.716;9.648;2022-12-18T08:29:21;-4.70;99.90
3684;DHT22;1858;48.716;9.648;2022-12-18T08:31:49;-4.70;99.90
3684;DHT22;1858;48.716;9.648;2022-12-18T08:34:18;-4.60;99.90
3684;DHT22;1858;48.716;9.648;2022-12-18T08:36:53;-4.60;99.90
3684;DHT22;1858;48.716;9.648;2022-12-18T08:39:21;-4.60;85.50
3684;DHT22;1858;48.716;9.648;2022-12-18T08:41:49;-4.40;99.90
3684;DHT22;1858;48.716;9.648;2022-12-18T08:44:36;-4.30;22.20
3684;DHT22;1858;48.716;9.648;2022-12-18T08:47:08;-4.10;1.00
3684;DHT22;1858;48.716;9.648;2022-12-18T08:49:36;-4.10;1.00
3684;DHT22;1858;48.716;9.648;2022-12-18T08:52:05;-4.00;1.00
3684;DHT22;1858;48.716;9.648;2022-12-18T08:54:33;-3.70;1.00
3684;DHT22;1858;48.716;9.648;2022-12-18T08:57:01;-3.60;1.00
3684;DHT22;1858;48.716;9.648;2022-12-18T08:59:30;-3.60;1.00
3684;DHT22;1858;48.716;9.648;2022-12-18T09:01:58;-3.40;1.00
3684;DHT22;1858;48.716;9.648;2022-12-18T09:04:27;-3.30;99.90
3684;DHT22;1858;48.716;9.648;2022-12-18T09:06:55;-3.10;99.90
3684;DHT22;1858;48.716;9.648;2022-12-18T09:09:23;-3.00;99.90
3684;DHT22;1858;48.716;9.648;2022-12-18T09:11:52;-2.80;99.90
3684;DHT22;1858;48.716;9.648;2022-12-18T09:14:20;-2.70;99.90
3684;DHT22;1858;48.716;9.648;2022-12-18T09:16:49;-2.40;99.90
3684;DHT22;1858;48.716;9.648;2022-12-18T09:19:17;-2.20;99.90
3684;DHT22;1858;48.716;9.648;2022-12-18T09:21:45;-2.20;99.90
3684;DHT22;1858;48.716;9.648;2022-12-18T09:24:14;-2.00;99.90
3684;DHT22;1858;48.716;9.648;2022-12-18T09:26:43;-1.70;99.90
3684;DHT22;1858;48.716;9.648;2022-12-18T09:29:12;-1.40;99.90
3684;DHT22;1858;48.716;9.648;2022-12-18T09:31:40;-1.00;99.90
3684;DHT22;1858;48.716;9.648;2022-12-18T09:34:08;-0.80;70.70
3684;DHT22;1858;48.716;9.648;2022-12-18T09:36:37;-0.80;61.30
3684;DHT22;1858;48.716;9.648;2022-12-18T09:39:06;-0.80;38.10
3684;DHT22;1858;48.716;9.648;2022-12-18T09:41:40;-0.60;24.90
3684;DHT22;1858;48.716;9.648;2022-12-18T09:44:33;-0.80;13.90
3684;DHT22;1858;48.716;9.648;2022-12-18T09:47:18;-0.90;13.60
3684;DHT22;1858;48.716;9.648;2022-12-18T09:49:50;-1.10;20.40
3684;DHT22;1858;48.716;9.648;2022-12-18T09:52:25;-1.10;22.50
3684;DHT22;1858;48.716;9.648;2022-12-18T09:55:00;-1.20;29.00
3684;DHT22;1858;48.716;9.648;2022-12-18T09:57:25;-1.10;34.30
3684;DHT22;1858;48.716;9.648;2022-12-18T09:59:58;-1.00;35.90
3684;DHT22;1858;48.716;9.648;2022-12-18T10:02:26;-1.00;30.00
3684;DHT22;1858;48.716;9.648;2022-12-18T10:05:07;-0.80;9.00
3684;DHT22;1858;48.716;9.648;2022-12-18T10:08:02;-0.50;2.40
3684;DHT22;1858;48.716;9.648;2022-12-18T10:13:26;-0.50;1.00
3684;DHT22;1858;48.716;9.648;2022-12-18T10:24:29;-1.10;1.00
3684;DHT22;1858;48.716;9.648;2022-12-18T10:26:59;-1.20;11.80
3684;DHT22;1858;48.716;9.648;2022-12-18T10:29:29;-1.20;9.70
3684;DHT22;1858;48.716;9.648;2022-12-18T10:31:57;-1.40;13.70
3684;DHT22;1858;48.716;9.648;2022-12-18T10:34:25;-1.60;19.60
3684;DHT22;1858;48.716;9.648;2022-12-18T10:36:54;-1.80;51.10
3684;DHT22;1858;48.716;9.648;2022-12-18T10:39:24;-1.70;56.00
3684;DHT22;1858;48.716;9.648;2022-12-18T10:42:09;-1.80;69.20
3684;DHT22;1858;48.716;9.648;2022-12-18T10:44:27;-2.00;78.60
3684;DHT22;1858;48.716;9.648;2022-12-18T10:47:02;-2.10;99.90
3684;DHT22;1858;48.716;9.648;2022-12-18T10:49:29;-2.20;99.90
3684;DHT22;1858;48.716;9.648;2022-12-18T10:52:19;-2.30;99.90
3684;DHT22;1858;48.716;9.648;2022-12-18T10:54:55;-2.30;99.90
3684;DHT22;1858;48.716;9.648;2022-12-18T10:57:31;-2.20;99.90
3684;DHT22;1858;48.716;9.648;2022-12-18T11:00:29;-2.20;99.90
3684;DHT22;1858;48.716;9.648;2022-12-18T11:02:54;-2.10;99.90
3684;DHT22;1858;48.716;9.648;2022-12-18T11:05:26;-2.10;99.90
3684;DHT22;1858;48.716;9.648;2022-12-18T11:07:55;-2.20;99.90
3684;DHT22;1858;48.716;9.648;2022-12-18T11:10:28;-2.10;99.90
3684;DHT22;1858;48.716;9.648;2022-12-18T11:13:11;-2.00;99.90
3684;DHT22;1858;48.716;9.648;2022-12-18T11:15:41;-2.10;99.90
3684;DHT22;1858;48.716;9.648;2022-12-18T11:18:25;-2.10;99.90
3684;DHT22;1858;48.716;9.648;2022-12-18T11:21:05;-2.10;99.90
3684;DHT22;1858;48.716;9.648;2022-12-18T11:23:30;-2.20;99.90
3684;DHT22;1858;48.716;9.648;2022-12-18T11:26:03;-2.10;99.90
3684;DHT22;1858;48.716;9.648;2022-12-18T11:28:38;-2.10;99.90
3684;DHT22;1858;48.716;9.648;2022-12-18T11:36:36;-2.00;99.90
3684;DHT22;1858;48.716;9.648;2022-12-18T11:39:09;-1.90;99.90
3684;DHT22;1858;48.716;9.648;2022-12-18T11:41:42;-1.90;99.90
3684;DHT22;1858;48.716;9.648;2022-12-18T11:44:22;-1.80;99.90
3684;DHT22;1858;48.716;9.648;2022-12-18T11:47:09;-1.70;99.90
3684;DHT22;1858;48.716;9.648;2022-12-18T11:49:34;-1.60;99.90
3684;DHT22;1858;48.716;9.648;2022-12-18T11:54:39;-1.60;99.90
3684;DHT22;1858;48.716;9.648;2022-12-18T11:59:58;-1.70;99.90
3684;DHT22;1858;48.716;9.648;2022-12-18T12:08:25;-1.60;99.90
3684;DHT22;1858;48.716;9.648;2022-12-18T12:14:09;-1.80;99.90
3684;DHT22;1858;48.716;9.648;2022-12-18T12:25:21;-1.80;99.90
3684;DHT22;1858;48.716;9.648;2022-12-18T12:27:57;-1.80;99.90
3684;DHT22;1858;48.716;9.648;2022-12-18T12:38:46;-2.10;99.90
3684;DHT22;1858;48.716;9.648;2022-12-18T12:41:22;-2.10;99.90
3684;DHT22;1858;48.716;9.648;2022-12-18T12:44:17;-2.00;99.90
3684;DHT22;1858;48.716;9.648;2022-12-18T12:46:42;-2.10;99.90
3684;DHT22;1858;48.716;9.648;2022-12-18T12:49:13;-2.00;99.90
3684;DHT22;1858;48.716;9.648;2022-12-18T12:51:45;-2.00;99.90
3684;DHT22;1858;48.716;9.648;2022-12-18T12:54:24;-2.20;99.90
3684;DHT22;1858;48.716;9.648;2022-12-18T12:57:07;-2.10;99.90
3684;DHT22;1858;48.716;9.648;2022-12-18T13:02:30;-2.20;99.90
3684;DHT22;1858;48.716;9.648;2022-12-18T13:05:16;-2.00;99.90
3684;DHT22;1858;48.716;9.648;2022-12-18T13:10:52;-2.00;99.90
3684;DHT22;1858;48.716;9.648;2022-12-18T13:13:22;-2.00;99.90
3684;DHT22;1858;48.716;9.648;2022-12-18T13:16:05;-2.00;99.90
3684;DHT22;1858;48.716;9.648;2022-12-18T13:18:34;-2.00;99.90
3684;DHT22;1858;48.716;9.648;2022-12-18T13:21:21;-2.10;99.90
3684;DHT22;1858;48.716;9.648;2022-12-18T13:23:51;-2.10;99.90
3684;DHT22;1858;48.716;9.648;2022-12-18T13:26:30;-2.20;99.90
3684;DHT22;1858;48.716;9.648;2022-12-18T13:32:25;-2.10;99.90
3684;DHT22;1858;48.716;9.648;2022-12-18T13:37:53;-2.20;99.90
3684;DHT22;1858;48.716;9.648;2022-12-18T13:46:00;-2.30;99.90
3684;DHT22;1858;48.716;9.648;2022-12-18T13:48:32;-2.30;99.90
3684;DHT22;1858;48.716;9.648;2022-12-18T13:56:49;-2.20;99.90
3684;DHT22;1858;48.716;9.648;2022-12-18T13:59:20;-2.30;99.90
3684;DHT22;1858;48.716;9.648;2022-12-18T14:01:57;-2.30;99.90
3684;DHT22;1858;48.716;9.648;2022-12-18T14:04:29;-2.30;99.90
3684;DHT22;1858;48.716;9.648;2022-12-18T14:07:03;-2.20;99.90
3684;DHT22;1858;48.716;9.648;2022-12-18T14:09:53;-2.30;99.90
3684;DHT22;1858;48.716;9.648;2022-12-18T14:12:06;-2.40;99.90
3684;DHT22;1858;48.716;9.648;2022-12-18T14:14:53;-2.30;99.90
3684;DHT22;1858;48.716;9.648;2022-12-18T14:17:23;-2.40;99.90
3684;DHT22;1858;48.716;9.648;2022-12-18T14:19:51;-2.40;99.90
3684;DHT22;1858;48.716;9.648;2022-12-18T14:22:23;-2.40;99.90
3684;DHT22;1858;48.716;9.648;2022-12-18T14:27:48;-2.50;99.90
3684;DHT22;1858;48.716;9.648;2022-12-18T14:30:31;-2.50;99.90
3684;DHT22;1858;48.716;9.648;2022-12-18T14:33:04;-2.60;99.90
3684;DHT22;1858;48.716;9.648;2022-12-18T14:35:35;-2.60;99.90
3684;DHT22;1858;48.716;9.648;2022-12-18T14:38:30;-2.60;99.90
3684;DHT22;1858;48.716;9.648;2022-12-18T14:41:17;-2.60;99.90
3684;DHT22;1858;48.716;9.648;2022-12-18T14:46:45;-2.80;99.90
3684;DHT22;1858;48.716;9.648;2022-12-18T14:52:05;-2.80;99.90
3684;DHT22;1858;48.716;9.648;2022-12-18T14:54:37;-2.90;99.90
3684;DHT22;1858;48.716;9.648;2022-12-18T14:57:28;-2.90;99.90
3684;DHT22;1858;48.716;9.648;2022-12-18T14:59:52;-2.90;99.90
3684;DHT22;1858;48.716;9.648;2022-12-18T15:02:25;-3.00;99.90
3684;DHT22;1858;48.716;9.648;2022-12-18T15:07:51;-3.20;99.90
3684;DHT22;1858;48.716;9.648;2022-12-18T15:20:56;-3.30;1.00
3684;DHT22;1858;48.716;9.648;2022-12-18T15:23:52;-3.30;1.00
3684;DHT22;1858;48.716;9.648;2022-12-18T15:26:18;-3.40;1.00
3684;DHT22;1858;48.716;9.648;2022-12-18T15:28:49;-3.30;1.00
3684;DHT22;1858;48.716;9.648;2022-12-18T15:31:23;-3.50;1.00
3684;DHT22;1858;48.716;9.648;2022-12-18T15:36:24;-3.50;1.00
3684;DHT22;1858;48.716;9.648;2022-12-18T15:38:55;-3.60;1.00
3684;DHT22;1858;48.716;9.648;2022-12-18T15:41:25;-3.70;1.00
3684;DHT22;1858;48.716;9.648;2022-12-18T15:43:53;-3.70;1.00
3684;DHT22;1858;48.716;9.648;2022-12-18T15:46:23;-3.70;1.00
3684;DHT22;1858;48.716;9.648;2022-12-18T15:48:55;-3.70;1.00
3684;DHT22;1858;48.716;9.648;2022-12-18T15:51:35;-3.60;1.00
3684;DHT22;1858;48.716;9.648;2022-12-18T15:54:08;-3.60;1.00
3684;DHT22;1858;48.716;9.648;2022-12-18T15:56:36;-3.70;1.00
3684;DHT22;1858;48.716;9.648;2022-12-18T15:59:23;-3.70;1.00
3684;DHT22;1858;48.716;9.648;2022-12-18T16:01:52;-3.80;1.00
3684;DHT22;1858;48.716;9.648;2022-12-18T16:04:23;-3.80;1.00
3684;DHT22;1858;48.716;9.648;2022-12-18T16:06:52;-3.80;1.00
3684;DHT22;1858;48.716;9.648;2022-12-18T16:09:20;-3.90;1.00
3684;DHT22;1858;48.716;9.648;2022-12-18T16:12:14;-3.90;1.00
3684;DHT22;1858;48.716;9.648;2022-12-18T16:14:38;-3.80;1.00
3684;DHT22;1858;48.716;9.648;2022-12-18T16:17:09;-3.90;1.00
3684;DHT22;1858;48.716;9.648;2022-12-18T16:19:38;-4.00;1.00
3684;DHT22;1858;48.716;9.648;2022-12-18T16:22:08;-4.00;1.00
3684;DHT22;1858;48.716;9.648;2022-12-18T16:24:36;-4.00;1.00
3684;DHT22;1858;48.716;9.648;2022-12-18T16:27:04;-4.00;1.00
3684;DHT22;1858;48.716;9.648;2022-12-18T16:29:52;-4.10;1.00
3684;DHT22;1858;48.716;9.648;2022-12-18T16:32:21;-4.10;1.00
3684;DHT22;1858;48.716;9.648;2022-12-18T16:34:50;-4.10;1.00
3684;DHT22;1858;48.716;9.648;2022-12-18T16:37:18;-4.10;1.00
3684;DHT22;1858;48.716;9.648;2022-12-18T16:39:47;-4.20;1.00
3684;DHT22;1858;48.716;9.648;2022-12-18T16:42:17;-4.20;1.00
3684;DHT22;1858;48.716;9.648;2022-12-18T16:44:48;-4.20;1.00
3684;DHT22;1858;48.716;9.648;2022-12-18T16:47:17;-4.20;1.00
3684;DHT22;1858;48.716;9.648;2022-12-18T16:49:45;-4.20;1.00
3684;DHT22;1858;48.716;9.648;2022-12-18T16:52:15;-4.20;1.00
3684;DHT22;1858;48.716;9.648;2022-12-18T16:54:44;-4.10;1.00
3684;DHT22;1858;48.716;9.648;2022-12-18T16:57:15;-4.10;1.00
3684;DHT22;1858;48.716;9.648;2022-12-18T16:59:44;-4.10;1.00
3684;DHT22;1858;48.716;9.648;2022-12-18T17:02:23;-4.20;1.00
3684;DHT22;1858;48.716;9.648;2022-12-18T17:04:47;-4.20;1.00
3684;DHT22;1858;48.716;9.648;2022-12-18T17:07:16;-4.20;1.00
3684;DHT22;1858;48.716;9.648;2022-12-18T17:09:44;-4.20;1.00
3684;DHT22;1858;48.716;9.648;2022-12-18T17:12:12;-4.10;1.00
3684;DHT22;1858;48.716;9.648;2022-12-18T17:14:41;-4.10;1.00
3684;DHT22;1858;48.716;9.648;2022-12-18T17:17:09;-4.10;1.00
3684;DHT22;1858;48.716;9.648;2022-12-18T17:19:37;-4.10;1.00
3684;DHT22;1858;48.716;9.648;2022-12-18T17:22:06;-4.10;1.00
3684;DHT22;1858;48.716;9.648;2022-12-18T17:24:35;-4.10;1.00
3684;DHT22;1858;48.716;9.648;2022-12-18T17:27:03;-4.10;1.00
3684;DHT22;1858;48.716;9.648;2022-12-18T17:29:32;-4.10;1.00
3684;DHT22;1858;48.716;9.648;2022-12-18T17:32:00;-4.10;1.00
3684;DHT22;1858;48.716;9.648;2022-12-18T17:34:29;-4.10;1.00
3684;DHT22;1858;48.716;9.648;2022-12-18T17:36:57;-4.00;1.00
3684;DHT22;1858;48.716;9.648;2022-12-18T17:39:25;-3.90;1.00
3684;DHT22;1858;48.716;9.648;2022-12-18T17:41:54;-3.90;1.00
3684;DHT22;1858;48.716;9.648;2022-12-18T17:44:23;-4.00;1.00
3684;DHT22;1858;48.716;9.648;2022-12-18T17:46:52;-3.90;1.00
3684;DHT22;1858;48.716;9.648;2022-12-18T17:49:20;-4.00;1.00
3684;DHT22;1858;48.716;9.648;2022-12-18T17:51:48;-3.90;1.00
3684;DHT22;1858;48.716;9.648;2022-12-18T17:54:17;-3.90;1.00
3684;DHT22;1858;48.716;9.648;2022-12-18T17:56:46;-3.90;1.00
3684;DHT22;1858;48.716;9.648;2022-12-18T17:59:14;-3.80;1.00
3684;DHT22;1858;48.716;9.648;2022-12-18T18:01:42;-3.80;1.00
3684;DHT22;1858;48.716;9.648;2022-12-18T18:04:11;-3.70;1.00
3684;DHT22;1858;48.716;9.648;2022-12-18T18:06:40;-3.70;99.90
3684;DHT22;1858;48.716;9.648;2022-12-18T18:09:09;-3.70;99.90
3684;DHT22;1858;48.716;9.648;2022-12-18T18:11:37;-3.70;99.90
3684;DHT22;1858;48.716;9.648;2022-12-18T18:14:23;-3.70;99.90
3684;DHT22;1858;48.716;9.648;2022-12-18T18:16:53;-3.70;99.90
3684;DHT22;1858;48.716;9.648;2022-12-18T18:22:11;-3.70;99.90
3684;DHT22;1858;48.716;9.648;2022-12-18T18:24:39;-3.60;99.90
3684;DHT22;1858;48.716;9.648;2022-12-18T18:27:09;-3.50;99.90
3684;DHT22;1858;48.716;9.648;2022-12-18T18:29:38;-3.50;99.90
3684;DHT22;1858;48.716;9.648;2022-12-18T18:32:07;-3.40;99.90
3684;DHT22;1858;48.716;9.648;2022-12-18T18:34:35;-3.40;99.90
3684;DHT22;1858;48.716;9.648;2022-12-18T18:37:04;-3.40;99.90
3684;DHT22;1858;48.716;9.648;2022-12-18T18:39:32;-3.40;99.90
3684;DHT22;1858;48.716;9.648;2022-12-18T18:42:01;-3.50;99.90
3684;DHT22;1858;48.716;9.648;2022-12-18T18:44:29;-3.30;99.90
3684;DHT22;1858;48.716;9.648;2022-12-18T18:46:58;-3.30;99.90
3684;DHT22;1858;48.716;9.648;2022-12-18T18:49:27;-3.30;99.90